Terminal Aerodrome Forecast
Issued by NWS

Home | Current Version | Previous Version | Text Only | Print | Product List | Glossary On
Versions: 1 2 3 4 5 6 7 8 9 10 11 12 13 14 15 16 17 18 19 20 21 22 23 24 25 26 27 28 29 30 31 32 33 34 35 36 37 38 39 40 41 42
000
FTUS45 KBOU 210400 AAB
TAFAPA
TAF AMD
KAPA 210400Z 2104/2124 32010KT P6SM VCTS SCT080CB BKN150
      TEMPO 2104/2106 VRB15G25KT -SHRA BKN080
     FM210700 17010KT P6SM SCT120 SCT200
     FM211500 VRB05KT P6SM FEW120 FEW200
     FM211800 12005KT P6SM FEW080 SCT120
     FM212100 16009KT P6SM SCT080 BKN120 PROB30 2121/2124 VRB15G30KT
      -TSRA BKN070CB=

USA.gov is the U.S. government's official web portal to all federal, state and local government web resources and services.